Terminal Aerodrome Forecast
Issued by NWS

Home | Current Version | Previous Version | Text Only | Print | Product List | Glossary On
Versions: 1 2 3 4 5 6 7 8 9 10 11 12 13 14 15
528
FTUS45 KTFX 221736
TAFHVR
TAF
KHVR 221736Z 2218/2318 23008KT 4SM BR BKN007
      TEMPO 2218/2221 2SM BR BKN005
     FM222100 VRB05KT P6SM BKN015
     FM230900 06008KT 2SM -SN BR SCT005 OVC015=

USA.gov is the U.S. government's official web portal to all federal, state and local government web resources and services.